Time;durP1;ratioP1;P1;durP2;ratioP2;P2;SDS_P1;SDS_P2;PMS_P1;PMS_P2;Temp;Humidity;BMP_temperature;BMP_pressure;BME280_temperature;BME280_humidity;BME280_pressure;Samples;Min_cycle;Max_cycle;Signal;HPM_P1;HPM_P2
2022/12/27 00:01:37;;;;;;;12.75;3.88;;;3.30;99.90;;;;;;5027359;28;20496;-80
2022/12/27 00:04:03;;;;;;;6.78;2.78;;;3.20;99.90;;;;;;5028660;28;20133;-81
2022/12/27 00:06:29;;;;;;;10.88;2.95;;;3.20;99.90;;;;;;5009863;28;20049;-80
2022/12/27 00:08:56;;;;;;;10.57;3.25;;;3.20;99.90;;;;;;5027245;28;20049;-80
2022/12/27 00:11:24;;;;;;;10.57;3.08;;;3.20;99.90;;;;;;5028136;28;20041;-81
2022/12/27 00:13:50;;;;;;;10.45;3.75;;;3.10;99.90;;;;;;5024167;28;20128;-80
2022/12/27 00:16:18;;;;;;;6.43;2.92;;;3.20;99.90;;;;;;5006195;28;20172;-80
2022/12/27 00:18:45;;;;;;;9.25;3.35;;;3.10;99.90;;;;;;5007522;28;20539;-80
2022/12/27 00:21:12;;;;;;;5.90;2.70;;;3.20;99.90;;;;;;5009458;28;20056;-81
2022/12/27 00:23:40;;;;;;;9.13;2.58;;;3.20;99.90;;;;;;5007572;28;20065;-80
2022/12/27 00:26:13;;;;;;;7.30;2.78;;;3.20;99.90;;;;;;5008219;28;20476;-81
2022/12/27 00:28:39;;;;;;;6.80;2.97;;;3.20;99.90;;;;;;5006915;28;20046;-81
2022/12/27 00:31:04;;;;;;;7.60;2.83;;;3.20;99.90;;;;;;5007398;28;20488;-80
2022/12/27 00:33:32;;;;;;;9.15;3.22;;;3.20;99.90;;;;;;5007946;28;20109;-80
2022/12/27 00:35:58;;;;;;;10.88;3.53;;;3.20;99.90;;;;;;5006489;28;20864;-81
2022/12/27 00:38:24;;;;;;;8.75;2.67;;;3.30;99.90;;;;;;5006474;28;20096;-81
2022/12/27 00:40:50;;;;;;;10.65;3.20;;;3.30;99.90;;;;;;5018442;28;20041;-81
2022/12/27 00:43:15;;;;;;;6.32;2.72;;;3.30;99.90;;;;;;5007463;28;20408;-81
2022/12/27 00:45:42;;;;;;;7.28;2.90;;;3.30;99.90;;;;;;5006662;28;20057;-81
2022/12/27 00:48:08;;;;;;;9.15;3.10;;;3.30;99.90;;;;;;5006185;28;20096;-81
2022/12/27 00:50:34;;;;;;;6.82;3.13;;;3.30;99.90;;;;;;5007247;28;20417;-81
2022/12/27 00:52:59;;;;;;;7.07;3.17;;;3.30;99.90;;;;;;5008276;28;20132;-81
2022/12/27 00:55:25;;;;;;;11.20;3.08;;;3.20;99.90;;;;;;5007041;28;20115;-81
2022/12/27 00:57:51;;;;;;;8.57;2.53;;;3.20;99.90;;;;;;5025283;28;20055;-80
2022/12/27 01:00:16;;;;;;;6.47;2.80;;;3.20;99.90;;;;;;5025550;28;20096;-81
2022/12/27 01:02:42;;;;;;;9.45;3.10;;;3.20;99.90;;;;;;5026247;28;20038;-81
2022/12/27 01:05:07;;;;;;;8.73;3.10;;;3.10;99.90;;;;;;5026784;28;20033;-81
2022/12/27 01:07:33;;;;;;;10.23;3.60;;;3.40;99.90;;;;;;5025449;28;20550;-81
2022/12/27 01:09:59;;;;;;;4.85;2.80;;;3.10;99.90;;;;;;5027432;28;20370;-80
2022/12/27 01:12:24;;;;;;;8.82;3.17;;;3.10;99.90;;;;;;5008784;28;20111;-80
2022/12/27 01:14:50;;;;;;;7.30;3.00;;;3.10;99.90;;;;;;5027831;28;20119;-80
2022/12/27 01:17:16;;;;;;;8.07;3.03;;;3.10;99.90;;;;;;5027864;28;20045;-81
2022/12/27 01:19:42;;;;;;;7.30;2.50;;;3.10;99.90;;;;;;5027538;28;20049;-81
2022/12/27 01:22:07;;;;;;;7.93;2.45;;;3.00;99.90;;;;;;5026050;28;20045;-80
2022/12/27 01:24:33;;;;;;;11.27;3.08;;;3.10;99.90;;;;;;5025792;28;20795;-81
2022/12/27 01:26:59;;;;;;;8.18;2.80;;;3.10;99.90;;;;;;5014956;28;20053;-81
2022/12/27 01:29:24;;;;;;;9.32;2.67;;;3.00;99.90;;;;;;5006564;28;20409;-80
2022/12/27 01:31:50;;;;;;;8.57;3.10;;;3.00;99.90;;;;;;5006222;28;20054;-80
2022/12/27 01:34:16;;;;;;;6.57;2.58;;;3.00;99.90;;;;;;5020807;28;20049;-80
2022/12/27 01:36:42;;;;;;;8.27;2.72;;;3.00;99.90;;;;;;5025053;28;20041;-80
2022/12/27 01:39:10;;;;;;;12.70;3.35;;;3.00;99.90;;;;;;5026928;28;20067;-81
2022/12/27 01:44:38;;;;;;;8.43;3.63;;;3.10;99.90;;;;;;5023354;28;20053;-81
2022/12/27 01:47:29;;;;;;;5.45;3.40;;;3.20;99.90;;;;;;5025860;28;20049;-81
2022/12/27 01:50:15;;;;;;;12.40;2.78;;;3.20;99.90;;;;;;5026449;28;20053;-80
2022/12/27 01:52:48;;;;;;;15.70;3.45;;;3.20;99.90;;;;;;5025209;28;20048;-81
2022/12/27 01:55:26;;;;;;;9.45;2.67;;;3.30;99.90;;;;;;5026224;28;20048;-80
2022/12/27 01:57:57;;;;;;;5.93;3.10;;;3.40;99.90;;;;;;5025752;28;20100;-81
2022/12/27 02:00:22;;;;;;;10.68;2.92;;;3.40;99.90;;;;;;5027747;28;20053;-81
2022/12/27 02:02:48;;;;;;;7.93;2.80;;;3.40;99.90;;;;;;5029383;28;20049;-80
2022/12/27 02:05:16;;;;;;;9.70;3.40;;;3.40;99.90;;;;;;5030272;28;20097;-81
2022/12/27 02:07:57;;;;;;;10.60;3.33;;;3.40;99.90;;;;;;5009613;28;20046;-81
2022/12/27 02:10:23;;;;;;;13.82;3.85;;;3.50;99.90;;;;;;5010983;28;20330;-81
2022/12/27 02:12:49;;;;;;;7.30;3.35;;;3.60;99.90;;;;;;5012910;28;20046;-81
2022/12/27 02:15:14;;;;;;;5.63;2.78;;;3.70;99.90;;;;;;5009730;28;20091;-80
2022/12/27 02:17:40;;;;;;;8.05;3.20;;;3.70;99.90;;;;;;5023386;28;20152;-81
2022/12/27 02:20:12;;;;;;;8.30;3.33;;;3.80;99.90;;;;;;5012883;28;20056;-80
2022/12/27 02:25:50;;;;;;;6.85;3.13;;;3.90;99.90;;;;;;5023398;28;20061;-80
2022/12/27 02:28:50;;;;;;;6.30;3.15;;;3.90;99.90;;;;;;5029066;28;20459;-81
2022/12/27 02:31:23;;;;;;;7.55;3.05;;;3.90;99.90;;;;;;5029610;28;20422;-81
2022/12/27 02:33:51;;;;;;;12.20;2.97;;;3.90;99.90;;;;;;5022039;28;20053;-81
2022/12/27 02:36:24;;;;;;;7.18;2.60;;;3.80;99.90;;;;;;5011828;28;20137;-81
2022/12/27 02:38:55;;;;;;;11.90;3.28;;;3.90;99.90;;;;;;5010309;28;20104;-80
2022/12/27 02:55:35;;;;;;;8.38;3.30;;;3.80;99.90;;;;;;5029121;28;20096;-80
2022/12/27 02:58:38;;;;;;;8.48;3.08;;;3.80;99.90;;;;;;5028104;28;20132;-81
2022/12/27 03:04:42;;;;;;;10.93;3.60;;;3.90;99.90;;;;;;5027821;28;20053;-81
2022/12/27 03:07:13;;;;;;;12.20;2.90;;;3.90;99.90;;;;;;5033205;28;20107;-80
2022/12/27 03:16:04;;;;;;;7.22;2.67;;;3.80;99.90;;;;;;5028426;28;20053;-80
2022/12/27 03:18:36;;;;;;;8.02;2.80;;;3.80;99.90;;;;;;5028316;28;20124;-81
2022/12/27 03:26:41;;;;;;;10.43;3.22;;;3.90;99.90;;;;;;5028540;28;20423;-81
2022/12/27 03:34:51;;;;;;;8.85;3.13;;;3.90;99.90;;;;;;5009787;28;20542;-80
2022/12/27 03:40:06;;;;;;;10.55;3.30;;;4.00;99.90;;;;;;5009175;28;20504;-80
2022/12/27 03:46:32;;;;;;;9.68;2.83;;;4.10;99.90;;;;;;5010138;28;20061;-80
2022/12/27 03:48:11;;;;;;;10.98;3.20;;;4.10;99.90;;;;;;5028685;28;20045;-80
2022/12/27 03:50:56;;;;;;;6.45;2.42;;;4.10;99.90;;;;;;5028858;28;20100;-80
2022/12/27 03:53:34;;;;;;;6.30;2.40;;;4.10;99.90;;;;;;5027479;28;20041;-81
2022/12/27 03:56:00;;;;;;;7.80;2.38;;;4.10;99.90;;;;;;5027095;28;20523;-79
2022/12/27 03:58:26;;;;;;;8.30;2.55;;;4.00;99.90;;;;;;5020575;28;20037;-79
2022/12/27 04:00:51;;;;;;;14.57;2.70;;;4.00;99.90;;;;;;5025538;28;20096;-78
2022/12/27 04:03:17;;;;;;;10.48;2.78;;;4.00;99.90;;;;;;5009403;28;20128;-78
2022/12/27 04:05:43;;;;;;;8.20;2.97;;;3.90;99.90;;;;;;5007632;28;20034;-79
2022/12/27 04:35:30;;;;;;;9.23;3.10;;;3.90;99.90;;;;;;5028077;28;20049;-79
2022/12/27 04:37:56;;;;;;;9.07;2.72;;;3.80;99.90;;;;;;5028425;28;20045;-79
2022/12/27 04:57:03;;;;;;;7.95;2.72;;;3.80;99.90;;;;;;5020450;28;20054;-80
2022/12/27 05:02:14;;;;;;;7.57;2.80;;;3.80;99.90;;;;;;5025432;28;20049;-79
2022/12/27 05:04:41;;;;;;;9.45;3.67;;;3.90;99.90;;;;;;5027517;28;20041;-79
2022/12/27 05:15:22;;;;;;;7.93;3.00;;;3.80;99.90;;;;;;5026857;28;20049;-78
2022/12/27 05:17:48;;;;;;;12.65;3.15;;;3.80;99.90;;;;;;5025355;28;20049;-79
2022/12/27 05:20:13;;;;;;;14.27;2.67;;;3.80;99.90;;;;;;5009997;28;20057;-79
2022/12/27 05:25:37;;;;;;;6.68;2.35;;;3.90;99.90;;;;;;5027445;28;20061;-79
2022/12/27 05:28:05;;;;;;;9.85;3.20;;;3.90;99.90;;;;;;5009148;28;20041;-79
2022/12/27 05:30:35;;;;;;;5.78;2.58;;;3.90;99.90;;;;;;5027861;28;20049;-78
2022/12/27 05:33:01;;;;;;;9.68;3.20;;;3.90;99.90;;;;;;5026731;28;20596;-78
2022/12/27 05:35:27;;;;;;;10.07;2.92;;;3.90;99.90;;;;;;5017691;28;20048;-78
2022/12/27 05:37:54;;;;;;;12.95;3.10;;;3.90;99.90;;;;;;5011108;28;20060;-79
2022/12/27 05:40:20;;;;;;;9.23;2.72;;;3.90;99.90;;;;;;4993948;28;20077;-79
2022/12/27 05:42:46;;;;;;;7.65;2.63;;;3.90;99.90;;;;;;5009781;28;20049;-79
2022/12/27 05:45:13;;;;;;;9.30;3.05;;;3.90;99.90;;;;;;5010218;28;20786;-79
2022/12/27 05:47:39;;;;;;;12.43;3.22;;;4.00;99.90;;;;;;5013455;28;20052;-79
2022/12/27 05:50:05;;;;;;;7.18;2.83;;;3.90;99.90;;;;;;5011042;28;20060;-79
2022/12/27 05:52:32;;;;;;;7.75;3.00;;;4.00;99.90;;;;;;5009779;28;20042;-79
2022/12/27 05:54:57;;;;;;;8.88;2.75;;;3.90;99.90;;;;;;5010106;28;20054;-79
2022/12/27 05:57:23;;;;;;;10.40;3.25;;;3.90;99.90;;;;;;4993752;28;20384;-79
2022/12/27 05:59:48;;;;;;;7.30;2.75;;;3.90;99.90;;;;;;5016605;28;20041;-79
2022/12/27 06:02:14;;;;;;;6.20;3.05;;;4.00;99.90;;;;;;5030270;28;20046;-80
2022/12/27 06:04:42;;;;;;;8.40;3.00;;;4.00;99.90;;;;;;5029101;28;20706;-80
2022/12/27 06:07:10;;;;;;;7.93;3.50;;;4.00;99.90;;;;;;5011527;28;20430;-80
2022/12/27 06:09:35;;;;;;;7.30;3.17;;;4.00;99.90;;;;;;5030578;28;20415;-80
2022/12/27 06:12:04;;;;;;;5.68;2.70;;;4.00;99.90;;;;;;5028850;28;20053;-80
2022/12/27 06:14:30;;;;;;;11.90;2.80;;;4.00;99.90;;;;;;5030782;28;20033;-80
2022/12/27 06:16:55;;;;;;;5.60;2.65;;;4.10;99.90;;;;;;5028964;28;20076;-80
2022/12/27 06:19:21;;;;;;;9.02;3.28;;;4.10;99.90;;;;;;5029470;28;20060;-79
2022/12/27 06:21:48;;;;;;;9.85;3.03;;;4.10;99.90;;;;;;5027629;28;20052;-81
2022/12/27 06:24:14;;;;;;;5.88;2.38;;;4.10;99.90;;;;;;5046040;28;20049;-81
2022/12/27 06:26:41;;;;;;;11.15;2.72;;;4.10;99.90;;;;;;5030273;28;20046;-80
2022/12/27 06:29:08;;;;;;;6.90;2.47;;;4.10;99.90;;;;;;5030282;28;20090;-82
2022/12/27 06:31:34;;;;;;;9.20;2.47;;;4.10;99.90;;;;;;5029850;28;20049;-81
2022/12/27 06:33:59;;;;;;;7.15;2.40;;;4.10;99.90;;;;;;5024444;28;20643;-81
2022/12/27 06:36:26;;;;;;;9.02;2.78;;;4.10;99.90;;;;;;5026939;28;20104;-81
2022/12/27 06:38:52;;;;;;;6.22;2.97;;;4.10;99.90;;;;;;5028095;28;20115;-80
2022/12/27 06:41:18;;;;;;;7.45;2.78;;;4.10;99.90;;;;;;5010497;28;20420;-80
2022/12/27 06:43:44;;;;;;;12.15;3.03;;;4.00;99.90;;;;;;5019504;28;20037;-81
2022/12/27 06:46:13;;;;;;;10.73;3.35;;;4.00;99.90;;;;;;5011125;28;20070;-81
2022/12/27 06:48:38;;;;;;;10.57;3.35;;;4.00;99.90;;;;;;5027862;28;20049;-81
2022/12/27 06:51:06;;;;;;;7.32;3.45;;;4.00;99.90;;;;;;5029949;28;20053;-81
2022/12/27 06:53:32;;;;;;;9.85;3.58;;;3.90;99.90;;;;;;5039306;28;20045;-80
2022/12/27 06:56:06;;;;;;;7.32;2.97;;;3.90;99.90;;;;;;5033914;28;20053;-81
2022/12/27 06:58:32;;;;;;;6.80;2.80;;;3.90;99.90;;;;;;5020482;28;20084;-80
2022/12/27 07:01:05;;;;;;;8.75;3.10;;;3.80;99.90;;;;;;5028128;28;20131;-81
2022/12/27 07:03:30;;;;;;;8.77;3.45;;;3.80;99.90;;;;;;5024118;28;20457;-81
2022/12/27 07:05:59;;;;;;;12.75;3.40;;;3.70;99.90;;;;;;5027057;28;20051;-82
2022/12/27 07:08:25;;;;;;;8.48;2.85;;;3.60;99.90;;;;;;5026894;28;20045;-80
2022/12/27 07:10:51;;;;;;;8.00;2.95;;;3.60;99.90;;;;;;5027464;28;20045;-81
2022/12/27 07:13:16;;;;;;;7.90;3.20;;;3.60;99.90;;;;;;5025657;28;20128;-81
2022/12/27 07:15:42;;;;;;;10.70;3.30;;;3.60;99.90;;;;;;5021688;28;20490;-81
2022/12/27 07:18:08;;;;;;;8.93;3.30;;;3.60;99.90;;;;;;5027981;28;20139;-81
2022/12/27 07:20:34;;;;;;;12.88;3.65;;;3.50;99.90;;;;;;5028805;28;20050;-78
2022/12/27 07:23:00;;;;;;;11.43;3.55;;;3.60;99.90;;;;;;5041551;28;20063;-78
2022/12/27 07:25:25;;;;;;;10.20;3.53;;;3.50;99.90;;;;;;5025226;28;20046;-78
2022/12/27 07:27:51;;;;;;;10.20;3.95;;;3.50;99.90;;;;;;5019888;28;20060;-78
2022/12/27 07:30:16;;;;;;;11.00;3.88;;;4.70;99.90;;;;;;5025335;28;20118;-78
2022/12/27 07:32:42;;;;;;;9.57;3.80;;;3.50;99.90;;;;;;5034972;28;20419;-78
2022/12/27 07:35:08;;;;;;;12.93;3.40;;;3.50;99.90;;;;;;5024766;28;20042;-78
2022/12/27 07:37:33;;;;;;;13.02;4.10;;;3.40;99.90;;;;;;5026286;28;20046;-79
2022/12/27 07:39:59;;;;;;;9.82;3.70;;;3.40;99.90;;;;;;5026219;28;20060;-79
2022/12/27 07:42:25;;;;;;;14.70;4.00;;;3.40;99.90;;;;;;5025275;28;20602;-79
2022/12/27 07:44:50;;;;;;;11.57;4.25;;;3.40;99.90;;;;;;5027113;28;20100;-79
2022/12/27 07:47:16;;;;;;;12.68;3.75;;;3.40;99.90;;;;;;5026879;28;20043;-80
2022/12/27 07:49:41;;;;;;;15.55;3.80;;;3.30;99.90;;;;;;5023763;28;20038;-79
2022/12/27 07:52:07;;;;;;;6.30;2.92;;;3.40;99.90;;;;;;5025306;28;20039;-79
2022/12/27 07:54:32;;;;;;;8.93;2.88;;;3.30;99.90;;;;;;5027129;28;20451;-79
2022/12/27 07:56:58;;;;;;;8.13;3.17;;;3.30;99.90;;;;;;5026890;28;20384;-79
2022/12/27 07:59:26;;;;;;;6.93;3.05;;;3.40;99.90;;;;;;5007178;28;20054;-79
2022/12/27 08:02:03;;;;;;;9.50;2.85;;;3.50;99.90;;;;;;5007954;28;20455;-79
2022/12/27 08:04:29;;;;;;;5.55;2.90;;;3.50;99.90;;;;;;5007812;28;20064;-79
2022/12/27 08:07:06;;;;;;;9.07;3.72;;;3.50;99.90;;;;;;5012778;28;20041;-80
2022/12/27 08:09:36;;;;;;;12.43;4.57;;;3.40;99.90;;;;;;5026846;28;20095;-83
2022/12/27 08:12:02;;;;;;;10.02;3.75;;;3.40;99.90;;;;;;5024718;28;20060;-79
2022/12/27 08:14:28;;;;;;;5.22;2.70;;;3.50;99.90;;;;;;5027680;28;20108;-83
2022/12/27 08:17:02;;;;;;;8.60;3.80;;;3.70;99.90;;;;;;5026767;28;20515;-81
2022/12/27 08:19:30;;;;;;;8.82;3.67;;;3.40;99.90;;;;;;5027117;28;20049;-81
2022/12/27 08:21:56;;;;;;;9.32;3.97;;;3.60;99.90;;;;;;5002381;28;20073;-82
2022/12/27 08:24:21;;;;;;;10.70;3.83;;;3.40;99.90;;;;;;5007641;28;20053;-82
2022/12/27 08:26:47;;;;;;;11.23;3.70;;;3.50;99.90;;;;;;5006948;28;20060;-82
2022/12/27 08:29:12;;;;;;;8.95;4.18;;;3.50;99.90;;;;;;5006680;28;20522;-82
2022/12/27 08:31:38;;;;;;;13.55;4.47;;;3.50;99.90;;;;;;5007029;28;20411;-82
2022/12/27 08:34:04;;;;;;;12.10;4.40;;;3.40;99.90;;;;;;5007371;28;20045;-82
2022/12/27 08:36:29;;;;;;;11.10;4.82;;;3.50;99.90;;;;;;5006883;28;20069;-81
2022/12/27 08:38:55;;;;;;;14.25;5.15;;;3.50;99.90;;;;;;5011607;28;20053;-81
2022/12/27 08:41:21;;;;;;;9.35;4.45;;;3.80;99.90;;;;;;5020309;28;20042;-82
2022/12/27 08:43:47;;;;;;;11.23;4.85;;;3.40;99.90;;;;;;5026531;28;20042;-81
2022/12/27 08:46:13;;;;;;;14.73;6.57;;;3.60;99.90;;;;;;5026737;28;20110;-81
2022/12/27 08:48:38;;;;;;;9.63;3.85;;;3.60;99.90;;;;;;5010713;28;20195;-81
2022/12/27 08:51:05;;;;;;;13.23;5.93;;;3.70;99.90;;;;;;5026895;28;20041;-81
2022/12/27 08:53:33;;;;;;;12.15;4.80;;;3.60;99.90;;;;;;4986037;28;20049;-81
2022/12/27 08:55:59;;;;;;;11.48;4.95;;;3.70;99.90;;;;;;5006618;28;20104;-81
2022/12/27 08:58:25;;;;;;;14.73;5.47;;;3.80;99.90;;;;;;5007404;28;20050;-81
2022/12/27 09:00:50;;;;;;;16.65;5.43;;;3.80;99.90;;;;;;5007926;28;20535;-81
2022/12/27 09:03:18;;;;;;;14.63;4.28;;;3.90;99.90;;;;;;5006616;28;20042;-81
2022/12/27 09:05:44;;;;;;;11.80;5.53;;;4.00;99.90;;;;;;5006402;28;20092;-80
2022/12/27 09:08:10;;;;;;;11.43;4.03;;;3.90;99.90;;;;;;5014335;28;20041;-81
2022/12/27 09:10:36;;;;;;;9.52;3.80;;;4.00;99.90;;;;;;5013128;28;20500;-81
2022/12/27 09:13:02;;;;;;;19.92;5.68;;;3.90;99.90;;;;;;5029712;28;20060;-82
2022/12/27 09:15:28;;;;;;;10.70;4.35;;;4.10;99.90;;;;;;5027202;28;20046;-81
2022/12/27 09:17:53;;;;;;;9.50;5.65;;;4.00;99.90;;;;;;5029933;28;20132;-83
2022/12/27 09:20:19;;;;;;;10.25;4.72;;;4.20;99.90;;;;;;5026814;28;20053;-82
2022/12/27 09:22:44;;;;;;;13.60;4.80;;;4.20;99.90;;;;;;5008743;28;20038;-82
2022/12/27 09:25:10;;;;;;;10.98;5.75;;;4.20;99.90;;;;;;5017483;28;20093;-82
2022/12/27 09:27:39;;;;;;;11.45;4.13;;;4.10;99.90;;;;;;4996050;28;20041;-83
2022/12/27 09:30:06;;;;;;;9.18;4.05;;;4.00;99.90;;;;;;5017512;28;20108;-82
2022/12/27 09:32:32;;;;;;;9.65;5.07;;;4.30;99.90;;;;;;5019632;28;20053;-82
2022/12/27 09:34:58;;;;;;;14.43;4.78;;;4.00;99.90;;;;;;5030489;28;20060;-82
2022/12/27 09:37:26;;;;;;;7.30;3.90;;;4.20;99.90;;;;;;5027488;28;20042;-82
2022/12/27 09:39:52;;;;;;;10.10;5.30;;;4.10;99.90;;;;;;5027878;28;20076;-82
2022/12/27 09:42:28;;;;;;;9.20;4.38;;;4.20;99.90;;;;;;5029697;28;20417;-81
2022/12/27 09:45:18;;;;;;;10.85;4.45;;;4.30;99.90;;;;;;5015802;28;20073;-82
2022/12/27 09:48:08;;;;;;;15.43;5.43;;;4.40;99.90;;;;;;5020936;28;20053;-82
2022/12/27 09:50:43;;;;;;;13.30;4.60;;;4.50;99.90;;;;;;5030124;28;20091;-82
2022/12/27 09:53:16;;;;;;;10.48;4.68;;;4.60;99.90;;;;;;5023958;28;20411;-81
2022/12/27 09:55:49;;;;;;;12.82;6.35;;;4.50;99.90;;;;;;5029076;28;20124;-81
2022/12/27 09:58:22;;;;;;;11.10;4.97;;;4.40;99.90;;;;;;5030392;28;20055;-81
2022/12/27 10:00:51;;;;;;;10.90;5.28;;;4.40;99.90;;;;;;5030759;28;20124;-81
2022/12/27 10:03:21;;;;;;;12.95;5.68;;;4.20;99.90;;;;;;5014221;28;20049;-81
2022/12/27 10:06:01;;;;;;;12.90;4.10;;;4.40;99.90;;;;;;5019381;28;20831;-82
2022/12/27 10:08:53;;;;;;;11.75;4.72;;;4.70;99.90;;;;;;5004672;28;20514;-82
2022/12/27 10:11:39;;;;;;;9.50;3.08;;;4.50;99.90;;;;;;5036124;28;20050;-81
2022/12/27 10:14:20;;;;;;;10.43;3.25;;;4.70;99.90;;;;;;5017141;28;20080;-81
2022/12/27 10:17:16;;;;;;;8.38;3.28;;;4.70;99.90;;;;;;5027760;28;20057;-82
2022/12/27 10:19:52;;;;;;;14.65;3.83;;;4.60;99.90;;;;;;5027178;28;20088;-81
2022/12/27 10:22:18;;;;;;;11.60;3.35;;;;;;;;;;5028668;28;20633;-81
2022/12/27 10:24:46;;;;;;;13.55;3.88;;;;;;;;;;5027271;28;20042;-82
2022/12/27 10:27:18;;;;;;;13.52;4.20;;;;;;;;;;5027756;28;20452;-82
2022/12/27 10:29:44;;;;;;;9.35;3.97;;;;;;;;;;5029034;28;20184;-82
2022/12/27 10:32:12;;;;;;;13.48;3.60;;;;;;;;;;5028734;28;20064;-82
2022/12/27 10:34:38;;;;;;;7.57;3.47;;;5.50;99.90;;;;;;5012107;28;20129;-82
2022/12/27 10:37:07;;;;;;;14.18;4.10;;;;;;;;;;5028931;28;20459;-79
2022/12/27 10:39:35;;;;;;;12.98;3.58;;;5.10;99.90;;;;;;5026426;28;20053;-81
2022/12/27 10:42:37;;;;;;;8.30;3.13;;;5.10;99.90;;;;;;5021103;28;20049;-82
2022/12/27 10:45:26;;;;;;;9.90;3.40;;;5.50;99.90;;;;;;5006749;28;20065;-81
2022/12/27 10:47:58;;;;;;;11.30;3.83;;;5.60;99.90;;;;;;5008788;28;20095;-82
2022/12/27 10:50:27;;;;;;;11.18;4.28;;;5.60;99.90;;;;;;5018920;28;20052;-80
2022/12/27 10:52:53;;;;;;;8.90;3.00;;;5.60;99.90;;;;;;5015326;28;20124;-81
2022/12/27 10:55:39;;;;;;;11.80;3.70;;;5.80;99.90;;;;;;5023620;28;20121;-79
2022/12/27 10:58:34;;;;;;;9.98;3.35;;;6.00;99.90;;;;;;5027491;28;20557;-81
2022/12/27 11:00:59;;;;;;;9.93;3.25;;;6.10;99.90;;;;;;5018619;28;20052;-81
2022/12/27 11:03:25;;;;;;;10.40;3.42;;;6.20;99.90;;;;;;5013664;28;20045;-82
2022/12/27 11:06:05;;;;;;;7.28;2.50;;;6.10;99.90;;;;;;5007538;28;20050;-81
2022/12/27 11:08:31;;;;;;;9.38;2.85;;;6.20;99.90;;;;;;5026870;28;20057;-82
2022/12/27 11:11:16;;;;;;;7.35;2.75;;;6.00;99.90;;;;;;5021661;28;20940;-81
2022/12/27 11:13:42;;;;;;;7.20;2.55;;;6.20;99.90;;;;;;5028457;28;20062;-82
2022/12/27 11:16:16;;;;;;;13.18;2.95;;;6.00;99.90;;;;;;5028127;28;20143;-83
2022/12/27 11:18:49;;;;;;;10.30;2.75;;;6.10;99.90;;;;;;5023311;28;20518;-81
2022/12/27 11:21:16;;;;;;;14.32;3.10;;;6.00;99.90;;;;;;5025039;28;20054;-82
2022/12/27 11:23:44;;;;;;;9.10;2.78;;;;;;;;;;5028557;28;20128;-83
2022/12/27 11:26:25;;;;;;;8.32;2.88;;;6.10;99.90;;;;;;5027687;28;20049;-82
2022/12/27 11:28:56;;;;;;;9.48;3.20;;;6.10;99.90;;;;;;5027940;28;20054;-81
2022/12/27 11:31:36;;;;;;;8.65;2.88;;;6.00;99.90;;;;;;5027110;28;20056;-83
2022/12/27 11:34:33;;;;;;;7.15;2.70;;;6.00;99.90;;;;;;4991935;28;20053;-81
2022/12/27 11:37:12;;;;;;;11.05;3.03;;;6.20;99.90;;;;;;5008065;28;20093;-82
2022/12/27 11:39:38;;;;;;;9.23;2.40;;;6.30;99.90;;;;;;5009637;28;20471;-81
2022/12/27 11:42:27;;;;;;;13.48;2.70;;;6.70;99.90;;;;;;5008821;28;20381;-82
2022/12/27 11:45:02;;;;;;;7.30;2.83;;;6.40;99.90;;;;;;5013254;28;20050;-81
2022/12/27 11:47:40;;;;;;;7.85;2.47;;;7.00;99.90;;;;;;5008046;28;20427;-81
2022/12/27 11:50:05;;;;;;;11.23;2.72;;;7.00;99.90;;;;;;5007091;28;20060;-81
2022/12/27 11:52:40;;;;;;;6.10;2.25;;;6.90;99.90;;;;;;5024761;28;20041;-81
2022/12/27 11:55:38;;;;;;;13.10;2.90;;;7.00;99.90;;;;;;5024031;28;20486;-81
2022/12/27 11:58:41;;;;;;;8.52;2.78;;;6.90;99.90;;;;;;5009443;28;20045;-81
2022/12/27 12:01:26;;;;;;;11.53;2.80;;;6.90;99.90;;;;;;5018498;28;20047;-81
2022/12/27 12:04:21;;;;;;;8.02;2.53;;;6.90;99.90;;;;;;5011070;28;20041;-81
2022/12/27 12:07:20;;;;;;;9.25;2.83;;;6.70;99.90;;;;;;5026787;28;20053;-81
2022/12/27 12:10:14;;;;;;;7.03;2.72;;;6.60;99.90;;;;;;5026487;28;20044;-82
2022/12/27 12:12:50;;;;;;;5.25;2.55;;;6.60;99.90;;;;;;4990542;28;20071;-82
2022/12/27 12:15:52;;;;;;;12.48;3.50;;;6.50;99.90;;;;;;5020626;28;20048;-82
2022/12/27 12:18:52;;;;;;;9.70;2.88;;;6.40;99.90;;;;;;5010741;28;20496;-81
2022/12/27 12:21:51;;;;;;;13.77;3.33;;;6.40;99.90;;;;;;5007527;28;20088;-82
2022/12/27 12:24:38;;;;;;;7.63;3.25;;;6.90;99.90;;;;;;5006864;28;20060;-81
2022/12/27 12:27:28;;;;;;;8.98;3.38;;;7.00;99.90;;;;;;5023676;28;20045;-80
2022/12/27 12:30:17;;;;;;;10.98;3.35;;;6.80;99.90;;;;;;5025656;28;20592;-83
2022/12/27 12:32:58;;;;;;;6.22;3.15;;;6.80;99.90;;;;;;5014400;28;20053;-82
2022/12/27 12:35:48;;;;;;;10.57;3.33;;;8.00;99.90;;;;;;4994290;28;20037;-81
2022/12/27 12:38:22;;;;;;;10.27;3.20;;;7.10;99.90;;;;;;5013068;28;20191;-82
2022/12/27 12:41:15;;;;;;;10.60;4.82;;;6.90;99.90;;;;;;5026137;28;20049;-82
2022/12/27 12:43:57;;;;;;;11.35;3.65;;;6.80;99.90;;;;;;5008892;28;20060;-82
2022/12/27 12:46:31;;;;;;;10.73;4.17;;;6.40;99.90;;;;;;5007453;28;20050;-81
2022/12/27 12:49:18;;;;;;;9.88;3.80;;;6.70;99.90;;;;;;5007328;28;20326;-82
2022/12/27 12:52:14;;;;;;;7.68;3.72;;;6.50;99.90;;;;;;5007398;28;20054;-82
2022/12/27 12:55:21;;;;;;;14.00;4.97;;;6.70;99.90;;;;;;5007949;28;20050;-82
2022/12/27 12:57:58;;;;;;;9.18;3.60;;;6.50;99.90;;;;;;5006109;28;20054;-82
2022/12/27 13:00:55;;;;;;;8.95;4.45;;;6.70;99.90;;;;;;5026602;28;20534;-80
2022/12/27 13:03:38;;;;;;;11.02;5.30;;;6.50;99.90;;;;;;5026909;28;20825;-81
2022/12/27 13:06:32;;;;;;;11.15;4.05;;;6.90;99.90;;;;;;5026610;28;20120;-81
2022/12/27 13:09:21;;;;;;;8.50;4.47;;;6.60;99.90;;;;;;5025547;28;20507;-80
2022/12/27 13:12:30;;;;;;;6.57;4.25;;;6.70;99.90;;;;;;5010690;28;20042;-81
2022/12/27 13:15:19;;;;;;;10.65;4.90;;;6.60;99.90;;;;;;5007042;28;20034;-81
2022/12/27 13:18:01;;;;;;;11.98;5.28;;;6.80;99.90;;;;;;5006473;28;20563;-80
2022/12/27 13:20:50;;;;;;;10.02;5.70;;;6.60;99.90;;;;;;5006780;28;20050;-80
2022/12/27 13:23:28;;;;;;;13.65;6.45;;;6.30;99.90;;;;;;5006198;28;20045;-79
2022/12/27 13:26:10;;;;;;;8.65;5.82;;;6.60;99.90;;;;;;5009521;28;20784;-79
2022/12/27 13:29:19;;;;;;;12.13;6.03;;;6.70;99.90;;;;;;5026112;28;20120;-81
2022/12/27 13:32:07;;;;;;;11.68;7.57;;;6.70;99.90;;;;;;5042965;28;20050;-80
2022/12/27 13:35:11;;;;;;;13.80;8.07;;;6.90;99.90;;;;;;5026454;28;20689;-81
2022/12/27 13:37:48;;;;;;;14.45;8.35;;;6.40;99.90;;;;;;5025667;28;20056;-80
2022/12/27 13:40:56;;;;;;;12.73;8.50;;;6.60;99.90;;;;;;5025269;28;20042;-81
2022/12/27 13:43:40;;;;;;;18.40;10.40;;;6.30;99.90;;;;;;5006391;28;20050;-80
2022/12/27 13:46:16;;;;;;;14.85;9.45;;;6.10;99.90;;;;;;5006147;28;20136;-79
2022/12/27 13:49:01;;;;;;;14.20;9.48;;;6.20;99.90;;;;;;5006443;28;20111;-82
2022/12/27 13:51:50;;;;;;;19.33;10.18;;;6.60;99.90;;;;;;5006083;28;20049;-82
2022/12/27 13:54:57;;;;;;;15.35;11.18;;;6.70;99.90;;;;;;5006165;28;20092;-81
2022/12/27 13:57:54;;;;;;;16.08;10.65;;;6.50;99.90;;;;;;5010658;28;20056;-82
2022/12/27 14:00:21;;;;;;;18.65;11.48;;;6.80;99.90;;;;;;5029612;28;20068;-82
2022/12/27 14:03:02;;;;;;;17.67;11.13;;;6.70;99.90;;;;;;5028455;28;20188;-82
2022/12/27 14:05:48;;;;;;;19.02;11.55;;;6.50;99.90;;;;;;5029090;28;20057;-81
2022/12/27 14:09:01;;;;;;;17.10;11.80;;;6.20;99.90;;;;;;5012901;28;20042;-82
2022/12/27 14:11:59;;;;;;;16.40;10.83;;;6.40;99.90;;;;;;5028181;28;20049;-81
2022/12/27 14:14:27;;;;;;;14.77;11.13;;;6.50;99.90;;;;;;5027721;28;20053;-82
2022/12/27 14:17:09;;;;;;;14.40;10.82;;;6.40;99.90;;;;;;5029169;28;20444;-82
2022/12/27 14:19:59;;;;;;;15.20;10.50;;;;;;;;;;5012610;28;20085;-82
2022/12/27 14:22:56;;;;;;;17.63;11.15;;;6.20;99.90;;;;;;5027216;28;20515;-82
2022/12/27 14:25:59;;;;;;;13.63;10.48;;;6.00;99.90;;;;;;5018170;28;20049;-81
2022/12/27 14:28:46;;;;;;;16.75;11.38;;;6.10;99.90;;;;;;5018345;28;20538;-80
2022/12/27 14:31:30;;;;;;;16.13;11.07;;;6.10;99.90;;;;;;5028614;28;20079;-80
2022/12/27 14:34:41;;;;;;;17.13;11.18;;;5.90;99.90;;;;;;5028939;28;20041;-81
2022/12/27 14:37:32;;;;;;;16.17;10.57;;;;;;;;;;5025922;28;20061;-80
2022/12/27 14:40:12;;;;;;;21.48;12.98;;;;;;;;;;5029334;28;20122;-80
2022/12/27 14:43:06;;;;;;;23.13;15.68;;;;;;;;;;5021773;28;20976;-80
2022/12/27 14:45:32;;;;;;;22.98;14.60;;;;;;;;;;5009181;28;20132;-81
2022/12/27 14:48:21;;;;;;;25.25;15.45;;;;;;;;;;5030473;28;20132;-81
2022/12/27 14:50:58;;;;;;;20.88;12.90;;;;;;;;;;5008484;28;20160;-81
2022/12/27 14:53:46;;;;;;;18.30;12.85;;;;;;;;;;5015391;28;20037;-81
2022/12/27 14:56:28;;;;;;;17.17;12.82;;;;;;;;;;5000793;28;20069;-81
2022/12/27 14:58:57;;;;;;;19.80;13.20;;;;;;;;;;5009209;28;20132;-81
2022/12/27 15:01:41;;;;;;;21.48;13.23;;;;;;;;;;4991051;28;20104;-82
2022/12/27 15:04:27;;;;;;;21.20;13.73;;;;;;;;;;5007371;28;20132;-83
2022/12/27 15:07:03;;;;;;;23.60;15.80;;;;;;;;;;4991423;28;20149;-82
2022/12/27 15:09:45;;;;;;;24.10;15.45;;;;;;;;;;5008382;28;20041;-81
2022/12/27 15:12:11;;;;;;;17.70;13.05;;;;;;;;;;5033084;28;20086;-82
2022/12/27 15:14:56;;;;;;;22.00;13.98;;;;;;;;;;4991550;28;20089;-81
2022/12/27 15:17:53;;;;;;;20.48;13.25;;;5.40;99.90;;;;;;4990303;28;20054;-82